Time;durP1;ratioP1;P1;durP2;ratioP2;P2;SDS_P1;SDS_P2;PMS_P1;PMS_P2;Temp;Humidity;BMP_temperature;BMP_pressure;BME280_temperature;BME280_humidity;BME280_pressure;Samples;Min_cycle;Max_cycle;Signal;HPM_P1;HPM_P2
2023/08/07 00:01:06;;;;;;;;;;;9.70;99.90;;;;;;5036575;28;19909;-87
2023/08/07 00:03:32;;;;;;;;;;;9.70;99.90;;;;;;5036326;28;19932;-86
2023/08/07 00:05:58;;;;;;;;;;;9.70;99.90;;;;;;5036033;28;20429;-87
2023/08/07 00:08:23;;;;;;;;;;;9.70;99.90;;;;;;5036105;28;19923;-88
2023/08/07 00:10:49;;;;;;;;;;;9.60;99.90;;;;;;5036332;28;19996;-86
2023/08/07 00:13:14;;;;;;;;;;;9.70;99.90;;;;;;5036179;28;20032;-88
2023/08/07 00:15:40;;;;;;;;;;;9.70;99.90;;;;;;5037687;28;19908;-88
2023/08/07 00:18:06;;;;;;;;;;;9.70;99.90;;;;;;5040058;28;19916;-88
2023/08/07 00:20:31;;;;;;;;;;;9.70;99.90;;;;;;5057474;28;19999;-89
2023/08/07 00:22:57;;;;;;;;;;;9.70;99.90;;;;;;5040458;28;20004;-89
2023/08/07 00:25:23;;;;;;;;;;;9.70;99.90;;;;;;5056541;28;19916;-89
2023/08/07 00:27:49;;;;;;;;;;;9.60;99.90;;;;;;5040588;28;20011;-87
2023/08/07 00:30:14;;;;;;;;;;;9.60;99.90;;;;;;5057079;28;19952;-88
2023/08/07 00:32:40;;;;;;;;;;;9.60;99.90;;;;;;5056575;28;19958;-87
2023/08/07 00:35:08;;;;;;;;;;;9.70;99.90;;;;;;5073252;28;19955;-88
2023/08/07 00:37:34;;;;;;;;;;;9.60;99.90;;;;;;5056739;28;19952;-88
2023/08/07 00:40:01;;;;;;;;;;;9.60;99.90;;;;;;5056640;28;20269;-89
2023/08/07 00:42:28;;;;;;;;;;;9.60;99.90;;;;;;5040069;28;20355;-88
2023/08/07 00:44:53;;;;;;;;;;;9.70;99.90;;;;;;5040649;28;19908;-89
2023/08/07 00:47:19;;;;;;;;;;;9.60;99.90;;;;;;5039850;28;19920;-88
2023/08/07 00:49:46;;;;;;;;;;;9.60;99.90;;;;;;5040457;28;19920;-88
2023/08/07 00:52:12;;;;;;;;;;;9.60;99.90;;;;;;5040536;28;19913;-88
2023/08/07 00:54:38;;;;;;;;;;;9.60;99.90;;;;;;5073435;28;20007;-90
2023/08/07 00:57:11;;;;;;;;;;;9.60;99.90;;;;;;5040973;28;19909;-88
2023/08/07 00:59:37;;;;;;;;;;;9.60;99.90;;;;;;5056558;28;19964;-88
2023/08/07 01:02:03;;;;;;;;;;;9.50;99.90;;;;;;5040338;28;19917;-86
2023/08/07 01:04:30;;;;;;;;;;;9.50;99.90;;;;;;5056773;28;20352;-88
2023/08/07 01:06:56;;;;;;;;;;;9.50;99.90;;;;;;5039403;28;20022;-87
2023/08/07 01:09:21;;;;;;;;;;;9.50;99.90;;;;;;5073517;28;20359;-89
2023/08/07 01:11:55;;;;;;;;;;;9.50;99.90;;;;;;5040062;28;19955;-87
2023/08/07 01:14:28;;;;;;;;;;;9.50;99.90;;;;;;5056358;28;19908;-88
2023/08/07 01:17:03;;;;;;;;;;;9.50;99.90;;;;;;5039243;28;19909;-86
2023/08/07 01:19:30;;;;;;;;;;;9.50;99.90;;;;;;5055340;28;19920;-87
2023/08/07 01:22:15;;;;;;;;;;;9.40;99.90;;;;;;5039133;28;19916;-86
2023/08/07 01:24:46;;;;;;;;;;;9.40;99.90;;;;;;5056113;28;19908;-89
2023/08/07 01:27:17;;;;;;;;;;;9.40;99.90;;;;;;5055641;28;20292;-88
2023/08/07 01:30:07;;;;;;;;;;;9.40;99.90;;;;;;5038977;28;19912;-87
2023/08/07 01:32:42;;;;;;;;;;;9.40;99.90;;;;;;5038970;28;20363;-88
2023/08/07 01:35:09;;;;;;;;;;;9.40;99.90;;;;;;5072496;28;19914;-87
2023/08/07 01:37:36;;;;;;;;;;;9.40;99.90;;;;;;5040192;28;19912;-88
2023/08/07 01:40:03;;;;;;;;;;;9.40;99.90;;;;;;5057202;28;19915;-88
2023/08/07 01:42:29;;;;;;;;;;;9.40;99.90;;;;;;5039285;28;19913;-89
2023/08/07 01:44:55;;;;;;;;;;;9.40;99.90;;;;;;5040098;28;19931;-88
2023/08/07 01:47:20;;;;;;;;;;;9.40;99.90;;;;;;5038961;28;19913;-89
2023/08/07 01:49:46;;;;;;;;;;;9.30;99.90;;;;;;5060508;28;19963;-88
2023/08/07 01:52:12;;;;;;;;;;;9.30;99.90;;;;;;5050822;28;19936;-87
2023/08/07 01:54:37;;;;;;;;;;;9.30;99.90;;;;;;5055115;28;20268;-88
2023/08/07 01:57:03;;;;;;;;;;;9.30;99.90;;;;;;5039154;28;19915;-88
2023/08/07 01:59:29;;;;;;;;;;;9.30;99.90;;;;;;5054982;28;19912;-88
2023/08/07 02:01:55;;;;;;;;;;;9.30;99.90;;;;;;5038505;28;20314;-87
2023/08/07 02:04:20;;;;;;;;;;;9.30;99.90;;;;;;5055509;28;19967;-87
2023/08/07 02:06:46;;;;;;;;;;;9.30;99.90;;;;;;5038226;28;19909;-86
2023/08/07 02:09:11;;;;;;;;;;;9.30;99.90;;;;;;5071530;28;20356;-89
2023/08/07 02:11:37;;;;;;;;;;;9.20;99.90;;;;;;5038161;28;19916;-88
2023/08/07 02:14:03;;;;;;;;;;;9.30;99.90;;;;;;5038273;28;20021;-88
2023/08/07 02:16:28;;;;;;;;;;;9.20;99.90;;;;;;5038172;28;19956;-88
2023/08/07 02:18:54;;;;;;;;;;;9.20;99.90;;;;;;5038173;28;19909;-88
2023/08/07 02:21:19;;;;;;;;;;;9.20;99.90;;;;;;5038449;28;19934;-89
2023/08/07 02:23:45;;;;;;;;;;;9.20;99.90;;;;;;5070958;28;19909;-88
2023/08/07 02:26:11;;;;;;;;;;;9.20;99.90;;;;;;5037797;28;20449;-88
2023/08/07 02:28:36;;;;;;;;;;;9.20;99.90;;;;;;5054496;28;20348;-88
2023/08/07 02:31:02;;;;;;;;;;;9.20;99.90;;;;;;5037871;28;19955;-88
2023/08/07 02:33:30;;;;;;;;;;;9.20;99.90;;;;;;5054614;28;19915;-88
2023/08/07 02:35:56;;;;;;;;;;;9.10;99.90;;;;;;5037879;28;19954;-89
2023/08/07 02:38:21;;;;;;;;;;;9.10;99.90;;;;;;5054344;28;20000;-88
2023/08/07 02:40:47;;;;;;;;;;;9.10;99.90;;;;;;5037934;28;19909;-89
2023/08/07 02:43:12;;;;;;;;;;;9.10;99.90;;;;;;5054417;28;19964;-88
2023/08/07 02:45:38;;;;;;;;;;;9.10;99.90;;;;;;5037878;28;19912;-87
2023/08/07 02:48:04;;;;;;;;;;;9.10;99.90;;;;;;5037914;28;19909;-87
2023/08/07 02:50:32;;;;;;;;;;;9.10;99.90;;;;;;5037908;28;19916;-88
2023/08/07 02:52:58;;;;;;;;;;;9.10;99.90;;;;;;5037733;28;19909;-87
2023/08/07 02:55:24;;;;;;;;;;;9.10;99.90;;;;;;5037771;28;20075;-89
2023/08/07 02:57:49;;;;;;;;;;;9.10;99.90;;;;;;5054971;28;19931;-87
2023/08/07 03:00:15;;;;;;;;;;;9.00;99.90;;;;;;5037620;28;19909;-87
2023/08/07 03:02:40;;;;;;;;;;;9.00;99.90;;;;;;5054729;28;19909;-89
2023/08/07 03:05:06;;;;;;;;;;;9.00;99.90;;;;;;5054443;28;20352;-88
2023/08/07 03:07:32;;;;;;;;;;;9.00;99.90;;;;;;5054518;28;19948;-88
2023/08/07 03:09:58;;;;;;;;;;;9.00;99.90;;;;;;5037421;28;19915;-89
2023/08/07 03:12:45;;;;;;;;;;;9.00;99.90;;;;;;5053961;28;20450;-89
2023/08/07 03:15:11;;;;;;;;;;;9.00;99.90;;;;;;5037346;28;20022;-88
2023/08/07 03:17:36;;;;;;;;;;;9.00;99.90;;;;;;5055443;28;19984;-89
2023/08/07 03:20:03;;;;;;;;;;;9.00;99.90;;;;;;5037446;28;19909;-87
2023/08/07 03:22:29;;;;;;;;;;;9.00;99.90;;;;;;5037880;28;19912;-88
2023/08/07 03:24:55;;;;;;;;;;;9.00;99.90;;;;;;5037493;28;19916;-89
2023/08/07 03:27:21;;;;;;;;;;;9.00;99.90;;;;;;5038200;28;19988;-89
2023/08/07 03:29:46;;;;;;;;;;;9.00;99.90;;;;;;5038851;28;20011;-88
2023/08/07 03:32:12;;;;;;;;;;;9.00;99.90;;;;;;5038350;28;19915;-89
2023/08/07 03:34:38;;;;;;;;;;;9.00;99.90;;;;;;5053470;28;19912;-88
2023/08/07 03:37:05;;;;;;;;;;;9.00;99.90;;;;;;5038170;28;19920;-88
2023/08/07 03:39:31;;;;;;;;;;;9.00;99.90;;;;;;5037042;28;19913;-87
2023/08/07 03:41:56;;;;;;;;;;;9.00;99.90;;;;;;5054083;28;19913;-88
2023/08/07 03:44:23;;;;;;;;;;;9.00;99.90;;;;;;5037413;28;19919;-89
2023/08/07 03:46:50;;;;;;;;;;;9.10;99.90;;;;;;5087185;28;19999;-89
2023/08/07 03:49:18;;;;;;;;;;;9.00;99.90;;;;;;5039750;28;19916;-88
2023/08/07 03:51:44;;;;;;;;;;;9.00;99.90;;;;;;5058721;28;19913;-89
2023/08/07 03:54:09;;;;;;;;;;;9.00;99.90;;;;;;5058183;28;19917;-89
2023/08/07 03:56:38;;;;;;;;;;;8.90;99.90;;;;;;5042351;28;19913;-88
2023/08/07 03:59:04;;;;;;;;;;;8.90;99.90;;;;;;5042297;28;20257;-88
2023/08/07 04:01:30;;;;;;;;;;;9.00;99.90;;;;;;5041609;28;19919;-87
2023/08/07 04:03:55;;;;;;;;;;;8.90;99.90;;;;;;5041612;28;19916;-88
2023/08/07 04:06:21;;;;;;;;;;;8.90;99.90;;;;;;5042730;28;19913;-90
2023/08/07 04:08:47;;;;;;;;;;;8.90;99.90;;;;;;5056793;28;20398;-89
2023/08/07 04:11:13;;;;;;;;;;;8.90;99.90;;;;;;5041352;28;19913;-90
2023/08/07 04:13:38;;;;;;;;;;;9.00;99.90;;;;;;5040431;28;19920;-89
2023/08/07 04:16:36;;;;;;;;;;;8.90;99.90;;;;;;5041284;28;19908;-89
2023/08/07 04:19:02;;;;;;;;;;;9.00;99.90;;;;;;5066652;28;19913;-89
2023/08/07 04:21:28;;;;;;;;;;;8.90;99.90;;;;;;5057079;28;19913;-89
2023/08/07 04:23:54;;;;;;;;;;;8.90;99.90;;;;;;5056663;28;20004;-89
2023/08/07 04:26:19;;;;;;;;;;;9.00;99.90;;;;;;5056552;28;19952;-89
2023/08/07 04:28:45;;;;;;;;;;;9.00;99.90;;;;;;5057384;28;20284;-89
2023/08/07 04:31:10;;;;;;;;;;;8.90;99.90;;;;;;5040272;28;20011;-89
2023/08/07 04:33:36;;;;;;;;;;;8.90;99.90;;;;;;5057406;28;19913;-90
2023/08/07 04:36:01;;;;;;;;;;;8.90;99.90;;;;;;5056623;28;19966;-88
2023/08/07 04:38:27;;;;;;;;;;;9.00;99.90;;;;;;5090967;28;19912;-91
2023/08/07 04:40:53;;;;;;;;;;;8.90;99.90;;;;;;5040236;28;19919;-89
2023/08/07 04:43:22;;;;;;;;;;;8.90;99.90;;;;;;5057516;28;19919;-89
2023/08/07 04:45:48;;;;;;;;;;;9.00;99.90;;;;;;5040370;28;20368;-88
2023/08/07 04:48:14;;;;;;;;;;;9.00;99.90;;;;;;5040229;28;19959;-89
2023/08/07 04:50:40;;;;;;;;;;;9.00;99.90;;;;;;5039600;28;20641;-89
2023/08/07 04:53:05;;;;;;;;;;;8.90;99.90;;;;;;5040221;28;20015;-89
2023/08/07 04:55:31;;;;;;;;;;;9.00;99.90;;;;;;5040027;28;19955;-89
2023/08/07 04:57:57;;;;;;;;;;;9.00;99.90;;;;;;5056231;28;20556;-90
2023/08/07 05:00:23;;;;;;;;;;;9.00;99.90;;;;;;5056794;28;20257;-88
2023/08/07 05:02:48;;;;;;;;;;;9.00;99.90;;;;;;5055404;28;19917;-88
2023/08/07 05:05:15;;;;;;;;;;;9.00;99.90;;;;;;5056070;28;19913;-89
2023/08/07 05:07:41;;;;;;;;;;;9.00;99.90;;;;;;5056059;28;19919;-89
2023/08/07 05:10:06;;;;;;;;;;;9.00;99.90;;;;;;5039528;28;20003;-90
2023/08/07 05:12:32;;;;;;;;;;;9.00;99.90;;;;;;5055739;28;19913;-89
2023/08/07 05:14:58;;;;;;;;;;;9.00;99.90;;;;;;5039808;28;19913;-89
2023/08/07 05:17:23;;;;;;;;;;;9.00;99.90;;;;;;5055990;28;19913;-89
2023/08/07 05:19:49;;;;;;;;;;;9.00;99.90;;;;;;5039133;28;20420;-88
2023/08/07 05:22:14;;;;;;;;;;;9.00;99.90;;;;;;5039435;28;19951;-88
2023/08/07 05:24:40;;;;;;;;;;;8.90;99.90;;;;;;5039512;28;19913;-89
2023/08/07 05:27:08;;;;;;;;;;;9.00;99.90;;;;;;5055451;28;19920;-89
2023/08/07 05:29:34;;;;;;;;;;;9.00;99.90;;;;;;5056360;28;19917;-91
2023/08/07 05:31:59;;;;;;;;;;;9.00;99.90;;;;;;5072126;28;19966;-92
2023/08/07 05:34:25;;;;;;;;;;;9.00;99.90;;;;;;5055630;28;20395;-91
2023/08/07 05:36:50;;;;;;;;;;;9.00;99.90;;;;;;5055777;28;19951;-90
2023/08/07 05:39:16;;;;;;;;;;;9.00;99.90;;;;;;5055793;28;19916;-90
2023/08/07 05:41:42;;;;;;;;;;;9.00;99.90;;;;;;5055562;28;19909;-90
2023/08/07 05:44:07;;;;;;;;;;;9.00;99.90;;;;;;5038582;28;20003;-89
2023/08/07 05:46:33;;;;;;;;;;;9.00;99.90;;;;;;5089836;28;19909;-91
2023/08/07 05:48:58;;;;;;;;;;;9.00;99.90;;;;;;5038028;28;20419;-89
2023/08/07 05:51:24;;;;;;;;;;;9.00;99.90;;;;;;5025862;28;20000;-90
2023/08/07 05:53:49;;;;;;;;;;;9.00;99.90;;;;;;5047268;28;19944;-91
2023/08/07 05:56:16;;;;;;;;;;;9.00;99.90;;;;;;5069459;28;19909;-90
2023/08/07 05:58:42;;;;;;;;;;;8.90;99.90;;;;;;5052917;28;19913;-91
2023/08/07 06:01:07;;;;;;;;;;;9.00;99.90;;;;;;5033315;28;20319;-89
2023/08/07 06:03:33;;;;;;;;;;;9.00;99.90;;;;;;5048776;28;19908;-90
2023/08/07 06:05:59;;;;;;;;;;;8.90;99.90;;;;;;5045936;28;20424;-90
2023/08/07 06:08:25;;;;;;;;;;;8.90;99.90;;;;;;5051706;28;20007;-88
2023/08/07 06:10:51;;;;;;;;;;;9.00;99.90;;;;;;5050608;28;19910;-87
2023/08/07 06:13:16;;;;;;;;;;;9.00;99.90;;;;;;5053681;28;19904;-88
2023/08/07 06:15:42;;;;;;;;;;;9.00;99.90;;;;;;5037304;28;20360;-89
2023/08/07 06:18:07;;;;;;;;;;;9.00;99.90;;;;;;5053556;28;20013;-90
2023/08/07 06:20:34;;;;;;;;;;;9.00;99.90;;;;;;5034931;28;20406;-89
2023/08/07 06:23:00;;;;;;;;;;;9.00;99.90;;;;;;5085184;28;20330;-90
2023/08/07 06:25:25;;;;;;;;;;;9.00;99.90;;;;;;5037325;28;19913;-90
2023/08/07 06:27:51;;;;;;;;;;;9.00;99.90;;;;;;5047521;28;19916;-89
2023/08/07 06:30:17;;;;;;;;;;;9.00;99.90;;;;;;5055969;28;19909;-91
2023/08/07 06:32:43;;;;;;;;;;;9.00;99.90;;;;;;5039637;28;19915;-92
2023/08/07 06:35:08;;;;;;;;;;;9.00;99.90;;;;;;5071332;28;19912;-90
2023/08/07 06:37:34;;;;;;;;;;;9.00;99.90;;;;;;5037366;28;20007;-91
2023/08/07 06:40:02;;;;;;;;;;;9.00;99.90;;;;;;5052557;28;19908;-91
2023/08/07 06:42:28;;;;;;;;;;;9.10;99.90;;;;;;5055221;28;19908;-89
2023/08/07 06:44:54;;;;;;;;;;;9.10;99.90;;;;;;5085559;28;20375;-91
2023/08/07 06:47:19;;;;;;;;;;;9.10;99.90;;;;;;5039071;28;19917;-90
2023/08/07 06:49:46;;;;;;;;;;;9.10;99.90;;;;;;5039484;28;20007;-90
2023/08/07 06:52:11;;;;;;;;;;;9.10;99.90;;;;;;5039030;28;19924;-89
2023/08/07 06:54:37;;;;;;;;;;;9.10;99.90;;;;;;5051753;28;19921;-89
2023/08/07 06:57:03;;;;;;;;;;;9.20;99.90;;;;;;5037054;28;20260;-89
2023/08/07 06:59:28;;;;;;;;;;;9.20;99.90;;;;;;5041302;28;19913;-90
2023/08/07 07:01:54;;;;;;;;;;;9.20;99.90;;;;;;5034217;28;19915;-89
2023/08/07 07:04:20;;;;;;;;;;;9.10;99.90;;;;;;5038544;28;19909;-90
2023/08/07 07:06:46;;;;;;;;;;;9.10;99.90;;;;;;5038798;28;19908;-91
2023/08/07 07:09:15;;;;;;;;;;;9.20;99.90;;;;;;5051444;28;19925;-89
2023/08/07 07:11:42;;;;;;;;;;;9.20;99.90;;;;;;5071937;28;19916;-89
2023/08/07 07:14:07;;;;;;;;;;;9.20;99.90;;;;;;5054749;28;19951;-90
2023/08/07 07:16:33;;;;;;;;;;;9.20;99.90;;;;;;5049343;28;20356;-90
2023/08/07 07:18:59;;;;;;;;;;;9.20;99.90;;;;;;5051890;28;19913;-90
2023/08/07 07:21:25;;;;;;;;;;;9.20;99.90;;;;;;5036876;28;19916;-90
2023/08/07 07:23:51;;;;;;;;;;;9.20;99.90;;;;;;5052429;28;19916;-89
2023/08/07 07:26:17;;;;;;;;;;;9.30;99.90;;;;;;5051201;28;19909;-90
2023/08/07 07:28:43;;;;;;;;;;;9.40;99.90;;;;;;5053929;28;19920;-89
2023/08/07 07:31:11;;;;;;;;;;;9.50;99.90;;;;;;5051311;28;19913;-90
2023/08/07 07:33:39;;;;;;;;;;;9.50;99.90;;;;;;5053203;28;19908;-90
2023/08/07 07:36:06;;;;;;;;;;;9.60;99.90;;;;;;5054972;28;19908;-90
2023/08/07 07:38:32;;;;;;;;;;;9.50;99.90;;;;;;5035142;28;19908;-90
2023/08/07 07:40:57;;;;;;;;;;;9.40;99.90;;;;;;5037334;28;19932;-88
2023/08/07 07:43:23;;;;;;;;;;;9.40;99.90;;;;;;5038946;28;19952;-88
2023/08/07 07:45:49;;;;;;;;;;;9.40;99.90;;;;;;5036646;28;19913;-91
2023/08/07 07:48:15;;;;;;;;;;;9.40;99.90;;;;;;5067829;28;19916;-89
2023/08/07 07:50:41;;;;;;;;;;;9.30;99.90;;;;;;5045843;28;19916;-89
2023/08/07 07:53:06;;;;;;;;;;;9.30;99.90;;;;;;5051268;28;19955;-88
2023/08/07 07:55:34;;;;;;;;;;;9.30;99.90;;;;;;5048906;28;19963;-90
2023/08/07 07:57:59;;;;;;;;;;;9.30;99.90;;;;;;5037596;28;19913;-89
2023/08/07 08:00:26;;;;;;;;;;;9.40;99.90;;;;;;5036461;28;19915;-88
2023/08/07 08:02:53;;;;;;;;;;;9.30;99.90;;;;;;5071448;28;20003;-89
2023/08/07 08:05:18;;;;;;;;;;;9.40;99.90;;;;;;5038282;28;19908;-90
2023/08/07 08:07:44;;;;;;;;;;;9.40;99.90;;;;;;5038543;28;19915;-89
2023/08/07 08:10:10;;;;;;;;;;;9.40;99.90;;;;;;5055254;28;19916;-89
2023/08/07 08:12:36;;;;;;;;;;;9.40;99.90;;;;;;5040251;28;19909;-89
2023/08/07 08:15:02;;;;;;;;;;;9.50;99.90;;;;;;5054707;28;19916;-89
2023/08/07 08:17:28;;;;;;;;;;;9.40;99.90;;;;;;5036758;28;19949;-90
2023/08/07 08:19:54;;;;;;;;;;;9.40;99.90;;;;;;5055832;28;19956;-90
2023/08/07 08:22:20;;;;;;;;;;;9.40;99.90;;;;;;5037768;28;19908;-87
2023/08/07 08:24:47;;;;;;;;;;;9.40;99.90;;;;;;5038561;28;20279;-90
2023/08/07 08:27:13;;;;;;;;;;;9.40;99.90;;;;;;5055728;28;19915;-89
2023/08/07 08:29:38;;;;;;;;;;;9.40;99.90;;;;;;5039382;28;19916;-89
2023/08/07 08:32:04;;;;;;;;;;;9.40;99.90;;;;;;5089907;28;20360;-90
2023/08/07 08:34:30;;;;;;;;;;;9.50;99.90;;;;;;5039446;28;19916;-88
2023/08/07 08:36:57;;;;;;;;;;;9.50;99.90;;;;;;5056334;28;19908;-90
2023/08/07 08:39:22;;;;;;;;;;;9.50;99.90;;;;;;5049717;28;20343;-90
2023/08/07 08:41:49;;;;;;;;;;;9.50;99.90;;;;;;5042655;28;19952;-90
2023/08/07 08:44:17;;;;;;;;;;;9.50;99.90;;;;;;5060308;28;19909;-91
2023/08/07 08:46:43;;;;;;;;;;;9.40;99.90;;;;;;5042270;28;19915;-90
2023/08/07 08:49:10;;;;;;;;;;;9.40;99.90;;;;;;5041722;28;19948;-90
2023/08/07 08:51:36;;;;;;;;;;;9.40;99.90;;;;;;5043958;28;19908;-89
2023/08/07 08:54:02;;;;;;;;;;;9.40;99.90;;;;;;5042762;28;20034;-90
2023/08/07 08:56:29;;;;;;;;;;;9.40;99.90;;;;;;5059482;28;19909;-91
2023/08/07 08:59:02;;;;;;;;;;;9.50;99.90;;;;;;5044953;28;19916;-90
2023/08/07 09:01:29;;;;;;;;;;;9.50;99.90;;;;;;5059788;28;20319;-91
2023/08/07 09:03:55;;;;;;;;;;;9.60;99.90;;;;;;5042094;28;19908;-89
2023/08/07 09:06:21;;;;;;;;;;;9.60;99.90;;;;;;5059831;28;19952;-91
2023/08/07 09:08:47;;;;;;;;;;;9.70;99.90;;;;;;5042968;28;19919;-90
2023/08/07 09:11:13;;;;;;;;;;;9.80;99.90;;;;;;5042095;28;20374;-89
2023/08/07 09:13:40;;;;;;;;;;;9.80;99.90;;;;;;5043752;28;19908;-90
2023/08/07 09:16:08;;;;;;;;;;;9.80;99.90;;;;;;5076413;28;19909;-90
2023/08/07 09:18:34;;;;;;;;;;;9.80;99.90;;;;;;5065402;28;19975;-90
2023/08/07 09:21:00;;;;;;;;;;;9.90;99.90;;;;;;5059993;28;19917;-90
2023/08/07 09:23:26;;;;;;;;;;;10.00;99.90;;;;;;5060114;28;19960;-88
2023/08/07 09:26:04;;;;;;;;;;;10.20;99.90;;;;;;5058790;28;20295;-89
2023/08/07 09:28:31;;;;;;;;;;;10.40;99.90;;;;;;5074615;28;19912;-91
2023/08/07 09:30:58;;;;;;;;;;;10.50;99.90;;;;;;5042517;28;19911;-90
2023/08/07 09:33:27;;;;;;;;;;;10.50;99.90;;;;;;5057786;28;20344;-89
2023/08/07 09:35:56;;;;;;;;;;;10.60;99.90;;;;;;5056964;28;19908;-88
2023/08/07 09:38:22;;;;;;;;;;;10.70;99.90;;;;;;5056700;28;19927;-90
2023/08/07 09:40:48;;;;;;;;;;;10.90;99.90;;;;;;5042285;28;19905;-90
2023/08/07 09:43:20;;;;;;;;;;;11.30;99.90;;;;;;5058347;28;19908;-90
2023/08/07 09:45:46;;;;;;;;;;;11.60;99.90;;;;;;5036938;28;19909;-88
2023/08/07 09:48:14;;;;;;;;;;;11.70;99.90;;;;;;5064691;28;20004;-91
2023/08/07 09:50:39;;;;;;;;;;;11.70;99.90;;;;;;5039326;28;19913;-90
2023/08/07 09:53:05;;;;;;;;;;;11.60;99.90;;;;;;5039029;28;19963;-89
2023/08/07 09:55:31;;;;;;;;;;;12.20;99.90;;;;;;5038515;28;20012;-89
2023/08/07 09:57:57;;;;;;;;;;;12.40;99.90;;;;;;5035229;28;19909;-89
2023/08/07 10:00:22;;;;;;;;;;;12.40;99.90;;;;;;5046825;28;19916;-89
2023/08/07 10:02:49;;;;;;;;;;;12.00;99.90;;;;;;5038936;28;20241;-88
2023/08/07 10:05:15;;;;;;;;;;;11.80;99.90;;;;;;5056011;28;19889;-91
2023/08/07 10:07:40;;;;;;;;;;;11.50;99.90;;;;;;5061702;28;19907;-89
2023/08/07 10:10:07;;;;;;;;;;;11.40;99.90;;;;;;5062421;28;19988;-90
2023/08/07 10:12:33;;;;;;;;;;;11.30;99.90;;;;;;5093800;28;19913;-90
2023/08/07 10:14:59;;;;;;;;;;;11.20;99.90;;;;;;5041659;28;19921;-89
2023/08/07 10:17:25;;;;;;;;;;;11.10;99.90;;;;;;5038779;28;19934;-88
2023/08/07 10:19:51;;;;;;;;;;;11.10;99.90;;;;;;5038957;28;19990;-89
2023/08/07 10:22:17;;;;;;;;;;;10.90;99.90;;;;;;5046093;28;19931;-88
2023/08/07 10:24:43;;;;;;;;;;;10.90;99.90;;;;;;5038003;28;19909;-88
2023/08/07 10:27:11;;;;;;;;;;;10.80;99.90;;;;;;5047744;28;19913;-87
2023/08/07 10:29:37;;;;;;;;;;;10.70;99.90;;;;;;5050865;28;20275;-90
2023/08/07 10:32:04;;;;;;;;;;;10.70;99.90;;;;;;5034948;28;20275;-88
2023/08/07 10:34:34;;;;;;;;;;;10.70;99.90;;;;;;5048725;28;19958;-90
2023/08/07 10:37:00;;;;;;;;;;;10.80;99.90;;;;;;5036972;28;19962;-88
2023/08/07 10:39:26;;;;;;;;;;;11.00;99.90;;;;;;5037538;28;20267;-88
2023/08/07 10:41:55;;;;;;;;;;;11.20;99.90;;;;;;5038212;28;19947;-89
2023/08/07 10:44:24;;;;;;;;;;;11.40;99.90;;;;;;5054000;28;19909;-88
2023/08/07 10:46:51;;;;;;;;;;;11.50;99.90;;;;;;5037980;28;19944;-87
2023/08/07 10:49:37;;;;;;;;;;;11.30;99.90;;;;;;5054361;28;19958;-89
2023/08/07 10:52:03;;;;;;;;;;;11.20;99.90;;;;;;5037644;28;19934;-89
2023/08/07 10:54:29;;;;;;;;;;;11.10;99.90;;;;;;5037838;28;19917;-89
2023/08/07 10:56:55;;;;;;;;;;;11.00;99.90;;;;;;5037817;28;19916;-89
2023/08/07 10:59:20;;;;;;;;;;;10.90;99.90;;;;;;5037300;28;19951;-88
2023/08/07 11:01:55;;;;;;;;;;;10.90;99.90;;;;;;5038178;28;19908;-89
2023/08/07 11:04:24;;;;;;;;;;;10.70;99.90;;;;;;5037598;28;19909;-89
2023/08/07 11:06:50;;;;;;;;;;;10.70;99.90;;;;;;5038727;28;20406;-90
2023/08/07 11:09:16;;;;;;;;;;;10.70;99.90;;;;;;5054380;28;20009;-90
2023/08/07 11:11:42;;;;;;;;;;;10.80;99.90;;;;;;5055880;28;20363;-91
2023/08/07 11:14:09;;;;;;;;;;;10.80;99.90;;;;;;5073047;28;20402;-90
2023/08/07 11:16:35;;;;;;;;;;;10.60;99.90;;;;;;5038799;28;19939;-90
2023/08/07 11:19:01;;;;;;;;;;;10.60;99.90;;;;;;5071985;28;19911;-90
2023/08/07 11:21:26;;;;;;;;;;;10.70;99.90;;;;;;5033932;28;19909;-91
2023/08/07 11:23:52;;;;;;;;;;;10.60;99.90;;;;;;5037327;28;20000;-89
2023/08/07 11:26:21;;;;;;;;;;;10.50;99.90;;;;;;5040533;28;19908;-90
2023/08/07 11:28:47;;;;;;;;;;;10.40;99.90;;;;;;5070101;28;19912;-90
2023/08/07 11:31:17;;;;;;;;;;;10.40;99.90;;;;;;5066675;28;19909;-90
2023/08/07 11:33:43;;;;;;;;;;;10.40;99.90;;;;;;5037110;28;19959;-91
2023/08/07 11:36:12;;;;;;;;;;;10.40;99.90;;;;;;5033288;28;20319;-89
2023/08/07 11:38:39;;;;;;;;;;;10.50;99.90;;;;;;5052615;28;19909;-90
2023/08/07 11:41:06;;;;;;;;;;;10.60;99.90;;;;;;5053995;28;19913;-90
2023/08/07 11:43:32;;;;;;;;;;;10.70;99.90;;;;;;5031168;28;19916;-89
2023/08/07 11:46:00;;;;;;;;;;;10.80;99.90;;;;;;5037343;28;19912;-89
2023/08/07 11:48:26;;;;;;;;;;;10.70;99.90;;;;;;5067448;28;19936;-90
2023/08/07 11:50:52;;;;;;;;;;;10.70;99.90;;;;;;5050392;28;19909;-89
2023/08/07 11:53:24;;;;;;;;;;;10.80;99.90;;;;;;5037023;28;19921;-90
2023/08/07 11:55:56;;;;;;;;;;;11.00;99.90;;;;;;5069974;28;19948;-90
2023/08/07 11:58:23;;;;;;;;;;;11.00;99.90;;;;;;5035781;28;19954;-90
2023/08/07 12:00:49;;;;;;;;;;;11.10;99.90;;;;;;5070397;28;19915;-90
2023/08/07 12:03:38;;;;;;;;;;;11.10;99.90;;;;;;5037207;28;19913;-89
2023/08/07 12:06:04;;;;;;;;;;;11.20;99.90;;;;;;5063665;28;19909;-89
2023/08/07 12:08:34;;;;;;;;;;;11.10;99.90;;;;;;5053195;28;19912;-88
2023/08/07 12:11:04;;;;;;;;;;;11.10;99.90;;;;;;5039286;28;19916;-89
2023/08/07 12:13:30;;;;;;;;;;;11.20;99.90;;;;;;5071771;28;20276;-89
2023/08/07 12:15:56;;;;;;;;;;;11.30;99.90;;;;;;5041330;28;19916;-90
2023/08/07 12:18:23;;;;;;;;;;;11.20;99.90;;;;;;5074659;28;19909;-89
2023/08/07 12:20:49;;;;;;;;;;;11.20;99.90;;;;;;5092153;28;20401;-89
2023/08/07 12:23:16;;;;;;;;;;;11.40;99.90;;;;;;5058687;28;19916;-90
2023/08/07 12:25:42;;;;;;;;;;;11.30;99.90;;;;;;5041239;28;19909;-89
2023/08/07 12:28:07;;;;;;;;;;;11.50;99.90;;;;;;5040916;28;19909;-89
2023/08/07 12:30:37;;;;;;;;;;;11.70;99.90;;;;;;5056993;28;19909;-89
2023/08/07 12:33:04;;;;;;;;;;;11.90;99.90;;;;;;5040762;28;19947;-90
2023/08/07 12:35:30;;;;;;;;;;;12.00;99.90;;;;;;5057811;28;20326;-88
2023/08/07 12:37:56;;;;;;;;;;;12.00;99.90;;;;;;5040450;28;20271;-89
2023/08/07 12:40:22;;;;;;;;;;;12.00;99.90;;;;;;5040507;28;19908;-89
2023/08/07 12:42:49;;;;;;;;;;;12.20;99.90;;;;;;5047630;28;19951;-89
2023/08/07 12:45:16;;;;;;;;;;;12.40;99.90;;;;;;5040335;28;19909;-89
2023/08/07 12:47:42;;;;;;;;;;;12.40;99.90;;;;;;5040334;28;20284;-89
2023/08/07 12:50:08;;;;;;;;;;;12.30;99.90;;;;;;5041375;28;20305;-89
2023/08/07 12:52:34;;;;;;;;;;;12.10;99.90;;;;;;5041786;28;19992;-89
2023/08/07 12:54:59;;;;;;;;;;;12.00;99.90;;;;;;5040904;28;19971;-88
2023/08/07 12:57:25;;;;;;;;;;;12.00;99.90;;;;;;5045266;28;19916;-89
2023/08/07 12:59:51;;;;;;;;;;;12.00;99.90;;;;;;5094948;28;19917;-88
2023/08/07 13:02:17;;;;;;;;;;;12.10;99.90;;;;;;5063229;28;19900;-89
2023/08/07 13:04:42;;;;;;;;;;;12.30;99.90;;;;;;5080291;28;19913;-89
2023/08/07 13:07:08;;;;;;;;;;;12.50;99.90;;;;;;5052447;28;19919;-88
2023/08/07 13:09:33;;;;;;;;;;;12.70;99.90;;;;;;5061191;28;20257;-88
2023/08/07 13:11:59;;;;;;;;;;;12.90;99.90;;;;;;5040384;28;19909;-89
2023/08/07 13:14:25;;;;;;;;;;;13.10;99.90;;;;;;5043537;28;19976;-88
2023/08/07 13:16:50;;;;;;;;;;;13.10;99.90;;;;;;5056105;28;19920;-88
2023/08/07 13:19:16;;;;;;;;;;;13.00;99.90;;;;;;5039806;28;20257;-89
2023/08/07 13:21:42;;;;;;;;;;;13.10;99.90;;;;;;5058650;28;19961;-90
2023/08/07 13:24:07;;;;;;;;;;;13.30;99.90;;;;;;5055924;28;19931;-88
2023/08/07 13:26:33;;;;;;;;;;;13.50;99.90;;;;;;5056210;28;20284;-88
2023/08/07 13:28:59;;;;;;;;;;;13.80;99.90;;;;;;5039731;28;19917;-89
2023/08/07 13:31:24;;;;;;;;;;;14.20;99.90;;;;;;5057839;28;19909;-88
2023/08/07 13:33:50;;;;;;;;;;;14.50;99.90;;;;;;5057727;28;19916;-88
2023/08/07 13:36:15;;;;;;;;;;;14.50;99.90;;;;;;5039898;28;19909;-89
2023/08/07 13:38:41;;;;;;;;;;;14.40;99.90;;;;;;5056437;28;19909;-89
2023/08/07 13:41:07;;;;;;;;;;;14.30;99.90;;;;;;5055765;28;20003;-89
2023/08/07 13:43:33;;;;;;;;;;;14.40;99.90;;;;;;5039392;28;19909;-88
2023/08/07 13:45:58;;;;;;;;;;;14.30;99.90;;;;;;5055986;28;19970;-89
2023/08/07 13:48:27;;;;;;;;;;;14.40;99.90;;;;;;5038881;28;20318;-88
2023/08/07 13:50:53;;;;;;;;;;;15.00;99.90;;;;;;5038999;28;19912;-88
2023/08/07 13:53:23;;;;;;;;;;;15.10;99.90;;;;;;5038980;28;20241;-88
2023/08/07 13:55:49;;;;;;;;;;;15.00;99.90;;;;;;5038702;28;19913;-88
2023/08/07 13:58:15;;;;;;;;;;;14.60;99.90;;;;;;5039056;28;20366;-89
2023/08/07 14:00:41;;;;;;;;;;;14.60;99.90;;;;;;5038671;28;19912;-88
2023/08/07 14:03:08;;;;;;;;;;;14.50;99.90;;;;;;5038301;28;20028;-88
2023/08/07 14:05:34;;;;;;;;;;;14.80;99.90;;;;;;5038472;28;19916;-88
2023/08/07 14:07:59;;;;;;;;;;;15.10;99.90;;;;;;5054866;28;19909;-89
2023/08/07 14:10:25;;;;;;;;;;;15.30;99.90;;;;;;5037926;28;19959;-88
2023/08/07 14:12:51;;;;;;;;;;;15.20;99.90;;;;;;5054588;28;19909;-88
2023/08/07 14:15:16;;;;;;;;;;;15.10;99.90;;;;;;5054587;28;19904;-88
2023/08/07 14:17:42;;;;;;;;;;;14.80;99.90;;;;;;5037417;28;20386;-88
2023/08/07 14:20:08;;;;;;;;;;;14.80;99.90;;;;;;5037555;28;19908;-88
2023/08/07 14:22:36;;;;;;;;;;;14.90;99.90;;;;;;5053906;28;19908;-89